Caieiras, Brazil
Current Conditions -  °F | °C
As of 10:00 AM on Wednesday 22 Oct 2014 (Local Time) from SBTE Reporting Station
Broken Clouds Broken Clouds  
Wind Chill: 84°   Ceiling: 2500
Heat Index: 91°   Visibility: 6mi
Dew Point: 73°   Wind: 3mph
Humidity: 70%   Direction: 60°ENE
Pressure: 29.94"   Gusts: NA
Location:  4.9°S, 42.98°W
Report Text: SBTE 221300Z 06003KT 9999 BKN025 29/23 Q1014
Loading
Personal Weather Stations






























Interactive Weather Map
Tropical Storm Tracking
New forecast layout! Learn more

10-Day Weather Forecast

Advertisements
Track Severe Weather on mobile